The Woodlands, Texas
Current Conditions -  °F | °C
As of 12:53 PM on Thursday 18 Dec 2014 (Local Time) from KDWH Reporting Station
Broken Clouds Broken Clouds  
Wind Chill: 67°   Ceiling: 5000
Heat Index: 67°   Visibility: 10mi
Dew Point: 60°   Wind: 3mph
Humidity: 79%   Direction: 110°ESE
Pressure: 30.06"   Gusts: NA
Location:  30.16°N, 95.45°W
Report Text: KDWH 181853Z 11003KT 10SM BKN050 19/16 A3006 RMK AO2 SLP178 T01940156
Loading
Personal Weather Stations






























Interactive Weather Map New forecast layout! Learn more

10-Day Weather Forecast

Advertisements
Track Severe Weather on mobile